sensor_id;sensor_type;location;lat;lon;timestamp;temperature;humidity
12438;DHT22;6283;51.330;12.374;2023-04-24T00:02:14;14.60;1.00
12438;DHT22;6283;51.330;12.374;2023-04-24T00:04:41;14.60;1.00
12438;DHT22;6283;51.330;12.374;2023-04-24T00:07:13;14.30;1.00
12438;DHT22;6283;51.330;12.374;2023-04-24T00:09:39;14.50;5.30
12438;DHT22;6283;51.330;12.374;2023-04-24T00:12:05;14.30;11.60
12438;DHT22;6283;51.330;12.374;2023-04-24T00:14:31;14.30;18.50
12438;DHT22;6283;51.330;12.374;2023-04-24T00:16:57;14.30;25.70
12438;DHT22;6283;51.330;12.374;2023-04-24T00:19:22;14.30;37.20
12438;DHT22;6283;51.330;12.374;2023-04-24T00:21:48;14.10;47.90
12438;DHT22;6283;51.330;12.374;2023-04-24T00:24:17;14.10;61.70
12438;DHT22;6283;51.330;12.374;2023-04-24T00:26:43;14.00;82.20
12438;DHT22;6283;51.330;12.374;2023-04-24T00:29:09;13.90;99.90
12438;DHT22;6283;51.330;12.374;2023-04-24T00:31:35;13.90;99.90
12438;DHT22;6283;51.330;12.374;2023-04-24T00:34:03;14.10;99.90
12438;DHT22;6283;51.330;12.374;2023-04-24T00:36:30;13.80;99.90
12438;DHT22;6283;51.330;12.374;2023-04-24T00:38:56;13.90;99.90
12438;DHT22;6283;51.330;12.374;2023-04-24T00:41:22;13.80;99.90
12438;DHT22;6283;51.330;12.374;2023-04-24T00:43:48;13.80;99.90
12438;DHT22;6283;51.330;12.374;2023-04-24T00:46:14;13.70;99.90
12438;DHT22;6283;51.330;12.374;2023-04-24T00:48:40;13.80;99.90
12438;DHT22;6283;51.330;12.374;2023-04-24T00:51:06;13.60;99.90
12438;DHT22;6283;51.330;12.374;2023-04-24T00:53:32;13.70;99.90
12438;DHT22;6283;51.330;12.374;2023-04-24T00:55:58;13.50;99.90
12438;DHT22;6283;51.330;12.374;2023-04-24T00:58:25;13.50;99.90
12438;DHT22;6283;51.330;12.374;2023-04-24T01:00:52;13.30;99.90
12438;DHT22;6283;51.330;12.374;2023-04-24T01:03:26;13.30;99.90
12438;DHT22;6283;51.330;12.374;2023-04-24T01:05:54;13.30;99.90
12438;DHT22;6283;51.330;12.374;2023-04-24T01:08:26;13.40;99.90
12438;DHT22;6283;51.330;12.374;2023-04-24T01:10:52;13.20;99.90
12438;DHT22;6283;51.330;12.374;2023-04-24T01:13:18;13.00;99.90
12438;DHT22;6283;51.330;12.374;2023-04-24T01:15:45;13.30;99.90
12438;DHT22;6283;51.330;12.374;2023-04-24T01:18:10;13.20;99.90
12438;DHT22;6283;51.330;12.374;2023-04-24T01:20:38;13.40;99.90
12438;DHT22;6283;51.330;12.374;2023-04-24T01:23:05;13.10;99.90
12438;DHT22;6283;51.330;12.374;2023-04-24T01:25:31;13.20;99.90
12438;DHT22;6283;51.330;12.374;2023-04-24T01:27:57;13.20;99.90
12438;DHT22;6283;51.330;12.374;2023-04-24T01:30:23;13.20;99.90
12438;DHT22;6283;51.330;12.374;2023-04-24T01:32:48;12.90;99.90
12438;DHT22;6283;51.330;12.374;2023-04-24T01:35:14;13.10;99.90
12438;DHT22;6283;51.330;12.374;2023-04-24T01:37:40;13.20;99.90
12438;DHT22;6283;51.330;12.374;2023-04-24T01:40:06;13.10;99.90
12438;DHT22;6283;51.330;12.374;2023-04-24T01:42:33;13.00;99.90
12438;DHT22;6283;51.330;12.374;2023-04-24T01:45:00;13.10;99.90
12438;DHT22;6283;51.330;12.374;2023-04-24T01:47:27;13.10;99.90
12438;DHT22;6283;51.330;12.374;2023-04-24T01:49:53;13.00;99.90
12438;DHT22;6283;51.330;12.374;2023-04-24T01:52:19;13.00;99.90
12438;DHT22;6283;51.330;12.374;2023-04-24T01:54:45;13.20;99.90
12438;DHT22;6283;51.330;12.374;2023-04-24T01:57:10;12.70;99.90
12438;DHT22;6283;51.330;12.374;2023-04-24T01:59:36;12.80;99.90
12438;DHT22;6283;51.330;12.374;2023-04-24T02:02:05;12.90;99.90
12438;DHT22;6283;51.330;12.374;2023-04-24T02:04:30;12.70;99.90
12438;DHT22;6283;51.330;12.374;2023-04-24T02:06:56;12.80;99.90
12438;DHT22;6283;51.330;12.374;2023-04-24T02:09:21;12.80;99.90
12438;DHT22;6283;51.330;12.374;2023-04-24T02:11:47;12.80;99.90
12438;DHT22;6283;51.330;12.374;2023-04-24T02:14:13;12.80;99.90
12438;DHT22;6283;51.330;12.374;2023-04-24T02:16:38;12.80;99.90
12438;DHT22;6283;51.330;12.374;2023-04-24T02:19:04;12.80;99.90
12438;DHT22;6283;51.330;12.374;2023-04-24T02:21:30;12.70;99.90
12438;DHT22;6283;51.330;12.374;2023-04-24T02:23:56;12.80;99.90
12438;DHT22;6283;51.330;12.374;2023-04-24T02:26:22;12.60;99.90
12438;DHT22;6283;51.330;12.374;2023-04-24T02:28:48;13.00;99.90
12438;DHT22;6283;51.330;12.374;2023-04-24T02:31:14;12.60;99.90
12438;DHT22;6283;51.330;12.374;2023-04-24T02:33:39;12.70;99.90
12438;DHT22;6283;51.330;12.374;2023-04-24T02:36:05;12.70;99.90
12438;DHT22;6283;51.330;12.374;2023-04-24T02:38:30;12.50;99.90
12438;DHT22;6283;51.330;12.374;2023-04-24T02:40:56;12.50;99.90
12438;DHT22;6283;51.330;12.374;2023-04-24T02:43:22;12.70;99.90
12438;DHT22;6283;51.330;12.374;2023-04-24T02:45:47;12.70;99.90
12438;DHT22;6283;51.330;12.374;2023-04-24T02:48:13;12.60;99.90
12438;DHT22;6283;51.330;12.374;2023-04-24T02:50:39;12.60;99.90
12438;DHT22;6283;51.330;12.374;2023-04-24T02:53:04;12.70;99.90
12438;DHT22;6283;51.330;12.374;2023-04-24T02:55:30;12.50;99.90
12438;DHT22;6283;51.330;12.374;2023-04-24T02:57:55;12.60;99.90
12438;DHT22;6283;51.330;12.374;2023-04-24T03:00:21;12.50;99.90
12438;DHT22;6283;51.330;12.374;2023-04-24T03:02:47;12.30;99.90
12438;DHT22;6283;51.330;12.374;2023-04-24T03:05:13;12.40;99.90
12438;DHT22;6283;51.330;12.374;2023-04-24T03:07:39;12.40;99.90
12438;DHT22;6283;51.330;12.374;2023-04-24T03:10:05;12.30;99.90
12438;DHT22;6283;51.330;12.374;2023-04-24T03:12:31;12.30;99.90
12438;DHT22;6283;51.330;12.374;2023-04-24T03:14:57;12.30;99.90
12438;DHT22;6283;51.330;12.374;2023-04-24T03:17:22;12.10;99.90
12438;DHT22;6283;51.330;12.374;2023-04-24T03:19:48;12.20;99.90
12438;DHT22;6283;51.330;12.374;2023-04-24T03:22:13;12.30;99.90
12438;DHT22;6283;51.330;12.374;2023-04-24T03:24:39;12.30;99.90
12438;DHT22;6283;51.330;12.374;2023-04-24T03:27:05;12.40;99.90
12438;DHT22;6283;51.330;12.374;2023-04-24T03:29:31;12.30;99.90
12438;DHT22;6283;51.330;12.374;2023-04-24T03:31:56;12.30;99.90
12438;DHT22;6283;51.330;12.374;2023-04-24T03:34:22;12.40;99.90
12438;DHT22;6283;51.330;12.374;2023-04-24T03:36:48;12.30;99.90
12438;DHT22;6283;51.330;12.374;2023-04-24T03:39:13;12.10;99.90
12438;DHT22;6283;51.330;12.374;2023-04-24T03:41:39;12.10;99.90
12438;DHT22;6283;51.330;12.374;2023-04-24T03:44:05;12.10;99.90
12438;DHT22;6283;51.330;12.374;2023-04-24T03:46:31;12.40;99.90
12438;DHT22;6283;51.330;12.374;2023-04-24T03:48:56;12.20;99.90
12438;DHT22;6283;51.330;12.374;2023-04-24T03:51:22;12.20;99.90
12438;DHT22;6283;51.330;12.374;2023-04-24T03:53:48;11.90;99.90
12438;DHT22;6283;51.330;12.374;2023-04-24T03:56:14;12.10;99.90
12438;DHT22;6283;51.330;12.374;2023-04-24T03:58:40;12.10;99.90
12438;DHT22;6283;51.330;12.374;2023-04-24T04:01:08;12.20;99.90
12438;DHT22;6283;51.330;12.374;2023-04-24T04:03:34;11.90;99.90
12438;DHT22;6283;51.330;12.374;2023-04-24T04:05:59;12.20;99.90
12438;DHT22;6283;51.330;12.374;2023-04-24T04:08:25;12.20;99.90
12438;DHT22;6283;51.330;12.374;2023-04-24T04:10:50;12.00;99.90
12438;DHT22;6283;51.330;12.374;2023-04-24T04:13:16;12.10;99.90
12438;DHT22;6283;51.330;12.374;2023-04-24T04:15:42;12.10;99.90
12438;DHT22;6283;51.330;12.374;2023-04-24T04:18:08;12.00;99.90
12438;DHT22;6283;51.330;12.374;2023-04-24T04:20:34;12.20;99.90
12438;DHT22;6283;51.330;12.374;2023-04-24T04:22:59;12.40;99.90
12438;DHT22;6283;51.330;12.374;2023-04-24T04:25:25;12.10;99.90
12438;DHT22;6283;51.330;12.374;2023-04-24T04:27:51;12.10;99.90
12438;DHT22;6283;51.330;12.374;2023-04-24T04:30:18;12.40;99.90
12438;DHT22;6283;51.330;12.374;2023-04-24T04:32:44;12.10;99.90
12438;DHT22;6283;51.330;12.374;2023-04-24T04:35:09;12.30;99.90
12438;DHT22;6283;51.330;12.374;2023-04-24T04:37:35;12.30;99.90
12438;DHT22;6283;51.330;12.374;2023-04-24T04:40:02;12.50;99.90
12438;DHT22;6283;51.330;12.374;2023-04-24T04:42:32;12.40;99.90
12438;DHT22;6283;51.330;12.374;2023-04-24T04:44:58;12.50;99.90
12438;DHT22;6283;51.330;12.374;2023-04-24T04:47:23;12.30;99.90
12438;DHT22;6283;51.330;12.374;2023-04-24T04:49:49;12.30;99.90
12438;DHT22;6283;51.330;12.374;2023-04-24T04:52:17;12.50;99.90
12438;DHT22;6283;51.330;12.374;2023-04-24T04:54:43;12.40;99.90
12438;DHT22;6283;51.330;12.374;2023-04-24T04:57:08;12.40;99.90
12438;DHT22;6283;51.330;12.374;2023-04-24T04:59:34;12.60;99.90
12438;DHT22;6283;51.330;12.374;2023-04-24T05:02:00;12.50;99.90
12438;DHT22;6283;51.330;12.374;2023-04-24T05:04:26;12.50;99.90
12438;DHT22;6283;51.330;12.374;2023-04-24T05:06:52;12.50;99.90
12438;DHT22;6283;51.330;12.374;2023-04-24T05:09:18;12.50;99.90
12438;DHT22;6283;51.330;12.374;2023-04-24T05:11:44;12.60;99.90
12438;DHT22;6283;51.330;12.374;2023-04-24T05:14:09;12.70;99.90
12438;DHT22;6283;51.330;12.374;2023-04-24T05:16:35;12.60;99.90
12438;DHT22;6283;51.330;12.374;2023-04-24T05:19:02;12.50;99.90
12438;DHT22;6283;51.330;12.374;2023-04-24T05:21:28;12.60;99.90
12438;DHT22;6283;51.330;12.374;2023-04-24T05:23:54;12.60;99.90
12438;DHT22;6283;51.330;12.374;2023-04-24T05:26:20;12.50;99.90
12438;DHT22;6283;51.330;12.374;2023-04-24T05:28:46;12.80;99.90
12438;DHT22;6283;51.330;12.374;2023-04-24T05:31:11;12.70;99.90
12438;DHT22;6283;51.330;12.374;2023-04-24T05:33:37;12.80;99.90
12438;DHT22;6283;51.330;12.374;2023-04-24T05:36:03;12.70;99.90
12438;DHT22;6283;51.330;12.374;2023-04-24T05:38:30;12.80;99.90
12438;DHT22;6283;51.330;12.374;2023-04-24T05:40:56;12.70;99.90
12438;DHT22;6283;51.330;12.374;2023-04-24T05:43:22;12.80;99.90
12438;DHT22;6283;51.330;12.374;2023-04-24T05:45:47;12.90;99.90
12438;DHT22;6283;51.330;12.374;2023-04-24T05:48:13;12.90;99.90
12438;DHT22;6283;51.330;12.374;2023-04-24T05:50:38;13.00;99.90
12438;DHT22;6283;51.330;12.374;2023-04-24T05:53:04;12.90;99.90
12438;DHT22;6283;51.330;12.374;2023-04-24T05:55:32;12.90;99.90
12438;DHT22;6283;51.330;12.374;2023-04-24T05:57:58;12.90;99.90
12438;DHT22;6283;51.330;12.374;2023-04-24T06:00:24;12.90;99.90
12438;DHT22;6283;51.330;12.374;2023-04-24T06:02:50;13.00;99.90
12438;DHT22;6283;51.330;12.374;2023-04-24T06:05:17;13.20;99.90
12438;DHT22;6283;51.330;12.374;2023-04-24T06:07:42;13.20;99.90
12438;DHT22;6283;51.330;12.374;2023-04-24T06:10:09;13.30;99.90
12438;DHT22;6283;51.330;12.374;2023-04-24T06:12:34;13.50;99.90
12438;DHT22;6283;51.330;12.374;2023-04-24T06:15:00;13.40;99.90
12438;DHT22;6283;51.330;12.374;2023-04-24T06:17:26;13.40;99.90
12438;DHT22;6283;51.330;12.374;2023-04-24T06:19:52;13.60;92.10
12438;DHT22;6283;51.330;12.374;2023-04-24T06:22:17;13.70;85.70
12438;DHT22;6283;51.330;12.374;2023-04-24T06:24:43;13.50;85.10
12438;DHT22;6283;51.330;12.374;2023-04-24T06:27:09;13.40;77.80
12438;DHT22;6283;51.330;12.374;2023-04-24T06:29:35;13.60;79.50
12438;DHT22;6283;51.330;12.374;2023-04-24T06:32:01;13.40;77.90
12438;DHT22;6283;51.330;12.374;2023-04-24T06:34:27;13.60;80.40
12438;DHT22;6283;51.330;12.374;2023-04-24T06:36:52;13.40;80.30
12438;DHT22;6283;51.330;12.374;2023-04-24T06:39:19;13.70;75.50
12438;DHT22;6283;51.330;12.374;2023-04-24T06:41:44;13.60;75.60
12438;DHT22;6283;51.330;12.374;2023-04-24T06:44:10;13.70;73.80
12438;DHT22;6283;51.330;12.374;2023-04-24T06:46:35;13.60;75.00
12438;DHT22;6283;51.330;12.374;2023-04-24T06:49:01;13.60;73.50
12438;DHT22;6283;51.330;12.374;2023-04-24T06:51:27;13.70;71.40
12438;DHT22;6283;51.330;12.374;2023-04-24T06:53:55;13.60;71.20
12438;DHT22;6283;51.330;12.374;2023-04-24T06:56:22;13.50;72.40
12438;DHT22;6283;51.330;12.374;2023-04-24T06:58:47;13.60;73.00
12438;DHT22;6283;51.330;12.374;2023-04-24T07:01:13;13.70;70.50
12438;DHT22;6283;51.330;12.374;2023-04-24T07:03:39;13.80;64.00
12438;DHT22;6283;51.330;12.374;2023-04-24T07:06:05;13.80;63.30
12438;DHT22;6283;51.330;12.374;2023-04-24T07:08:31;13.80;61.40
12438;DHT22;6283;51.330;12.374;2023-04-24T07:10:58;13.70;80.60
12438;DHT22;6283;51.330;12.374;2023-04-24T07:13:24;13.80;55.30
12438;DHT22;6283;51.330;12.374;2023-04-24T07:15:50;13.80;50.70
12438;DHT22;6283;51.330;12.374;2023-04-24T07:18:18;13.80;52.40
12438;DHT22;6283;51.330;12.374;2023-04-24T07:20:44;13.80;53.20
12438;DHT22;6283;51.330;12.374;2023-04-24T07:23:10;13.70;52.40
12438;DHT22;6283;51.330;12.374;2023-04-24T07:25:35;13.90;55.10
12438;DHT22;6283;51.330;12.374;2023-04-24T07:28:01;13.80;53.10
12438;DHT22;6283;51.330;12.374;2023-04-24T07:30:27;14.20;53.90
12438;DHT22;6283;51.330;12.374;2023-04-24T07:32:56;14.10;49.70
12438;DHT22;6283;51.330;12.374;2023-04-24T07:35:21;14.00;45.50
12438;DHT22;6283;51.330;12.374;2023-04-24T07:37:47;14.00;40.90
12438;DHT22;6283;51.330;12.374;2023-04-24T07:40:13;13.90;39.10
12438;DHT22;6283;51.330;12.374;2023-04-24T07:42:39;14.10;30.90
12438;DHT22;6283;51.330;12.374;2023-04-24T07:45:05;14.20;31.70
12438;DHT22;6283;51.330;12.374;2023-04-24T07:47:32;14.50;29.50
12438;DHT22;6283;51.330;12.374;2023-04-24T07:49:58;14.30;26.40
12438;DHT22;6283;51.330;12.374;2023-04-24T07:52:24;14.70;23.00
12438;DHT22;6283;51.330;12.374;2023-04-24T07:54:50;14.60;17.90
12438;DHT22;6283;51.330;12.374;2023-04-24T07:57:16;14.40;11.80
12438;DHT22;6283;51.330;12.374;2023-04-24T07:59:42;14.50;12.10
12438;DHT22;6283;51.330;12.374;2023-04-24T08:02:07;14.60;11.30
12438;DHT22;6283;51.330;12.374;2023-04-24T08:04:33;14.70;6.10
12438;DHT22;6283;51.330;12.374;2023-04-24T08:06:59;14.90;1.00
12438;DHT22;6283;51.330;12.374;2023-04-24T08:09:24;15.00;1.00
12438;DHT22;6283;51.330;12.374;2023-04-24T08:11:50;15.00;1.00
12438;DHT22;6283;51.330;12.374;2023-04-24T08:14:16;15.10;1.00
12438;DHT22;6283;51.330;12.374;2023-04-24T08:16:42;15.30;1.00
12438;DHT22;6283;51.330;12.374;2023-04-24T08:19:07;15.40;1.00
12438;DHT22;6283;51.330;12.374;2023-04-24T08:21:33;15.40;1.00
12438;DHT22;6283;51.330;12.374;2023-04-24T08:23:59;15.40;1.00
12438;DHT22;6283;51.330;12.374;2023-04-24T08:26:24;15.50;1.00
12438;DHT22;6283;51.330;12.374;2023-04-24T08:28:50;15.60;1.00
12438;DHT22;6283;51.330;12.374;2023-04-24T08:31:16;15.60;1.00
12438;DHT22;6283;51.330;12.374;2023-04-24T08:33:41;15.50;1.00
12438;DHT22;6283;51.330;12.374;2023-04-24T08:36:10;15.60;1.00
12438;DHT22;6283;51.330;12.374;2023-04-24T08:38:35;15.70;1.00
12438;DHT22;6283;51.330;12.374;2023-04-24T08:41:01;15.70;1.00
12438;DHT22;6283;51.330;12.374;2023-04-24T08:43:28;15.60;1.00
12438;DHT22;6283;51.330;12.374;2023-04-24T08:45:56;15.60;1.00
12438;DHT22;6283;51.330;12.374;2023-04-24T08:48:22;15.50;1.00
12438;DHT22;6283;51.330;12.374;2023-04-24T08:50:52;15.50;1.00
12438;DHT22;6283;51.330;12.374;2023-04-24T08:53:18;15.50;1.00
12438;DHT22;6283;51.330;12.374;2023-04-24T08:55:46;15.40;1.00
12438;DHT22;6283;51.330;12.374;2023-04-24T08:58:13;15.40;1.00
12438;DHT22;6283;51.330;12.374;2023-04-24T09:00:39;15.50;1.00
12438;DHT22;6283;51.330;12.374;2023-04-24T09:03:06;15.60;1.00
12438;DHT22;6283;51.330;12.374;2023-04-24T09:05:32;15.70;1.00
12438;DHT22;6283;51.330;12.374;2023-04-24T09:07:59;15.80;1.00
12438;DHT22;6283;51.330;12.374;2023-04-24T09:10:26;15.80;1.00
12438;DHT22;6283;51.330;12.374;2023-04-24T09:12:54;15.80;1.00
12438;DHT22;6283;51.330;12.374;2023-04-24T09:15:20;15.80;1.00
12438;DHT22;6283;51.330;12.374;2023-04-24T09:17:47;15.70;1.00
12438;DHT22;6283;51.330;12.374;2023-04-24T09:20:13;15.70;1.00
12438;DHT22;6283;51.330;12.374;2023-04-24T09:22:38;15.60;1.00
12438;DHT22;6283;51.330;12.374;2023-04-24T09:25:06;15.50;1.00
12438;DHT22;6283;51.330;12.374;2023-04-24T09:27:33;15.40;1.00
12438;DHT22;6283;51.330;12.374;2023-04-24T09:29:59;15.30;1.00
12438;DHT22;6283;51.330;12.374;2023-04-24T09:32:25;15.20;1.00
12438;DHT22;6283;51.330;12.374;2023-04-24T09:35:12;15.10;1.00
12438;DHT22;6283;51.330;12.374;2023-04-24T09:37:43;15.00;1.00
12438;DHT22;6283;51.330;12.374;2023-04-24T09:42:36;15.00;1.00
12438;DHT22;6283;51.330;12.374;2023-04-24T09:45:02;15.10;1.00
12438;DHT22;6283;51.330;12.374;2023-04-24T09:47:27;15.00;1.00
12438;DHT22;6283;51.330;12.374;2023-04-24T09:50:12;15.00;1.00
12438;DHT22;6283;51.330;12.374;2023-04-24T09:52:45;15.10;1.00
12438;DHT22;6283;51.330;12.374;2023-04-24T09:55:20;14.90;1.00
12438;DHT22;6283;51.330;12.374;2023-04-24T10:00:27;15.00;1.00
12438;DHT22;6283;51.330;12.374;2023-04-24T10:03:01;15.20;1.00
12438;DHT22;6283;51.330;12.374;2023-04-24T10:05:34;15.30;1.00
12438;DHT22;6283;51.330;12.374;2023-04-24T10:08:02;15.50;1.00
12438;DHT22;6283;51.330;12.374;2023-04-24T10:10:29;15.60;1.00
12438;DHT22;6283;51.330;12.374;2023-04-24T10:12:55;15.70;1.00
12438;DHT22;6283;51.330;12.374;2023-04-24T10:15:22;15.70;1.00
12438;DHT22;6283;51.330;12.374;2023-04-24T10:17:49;15.80;1.00
12438;DHT22;6283;51.330;12.374;2023-04-24T10:20:22;15.80;1.00
12438;DHT22;6283;51.330;12.374;2023-04-24T10:22:49;15.80;1.00
12438;DHT22;6283;51.330;12.374;2023-04-24T10:25:23;15.90;1.00
12438;DHT22;6283;51.330;12.374;2023-04-24T10:27:50;16.00;1.00
12438;DHT22;6283;51.330;12.374;2023-04-24T10:30:20;15.90;1.00
12438;DHT22;6283;51.330;12.374;2023-04-24T10:32:46;16.00;1.00
12438;DHT22;6283;51.330;12.374;2023-04-24T10:35:13;16.00;1.00
12438;DHT22;6283;51.330;12.374;2023-04-24T10:37:45;16.00;1.00
12438;DHT22;6283;51.330;12.374;2023-04-24T10:40:16;16.00;1.00
12438;DHT22;6283;51.330;12.374;2023-04-24T10:42:42;16.00;1.00
12438;DHT22;6283;51.330;12.374;2023-04-24T10:45:20;15.90;1.00
12438;DHT22;6283;51.330;12.374;2023-04-24T10:47:59;15.80;1.00
12438;DHT22;6283;51.330;12.374;2023-04-24T10:50:45;15.80;1.00
12438;DHT22;6283;51.330;12.374;2023-04-24T10:53:22;15.80;1.00
12438;DHT22;6283;51.330;12.374;2023-04-24T10:56:09;15.80;1.00
12438;DHT22;6283;51.330;12.374;2023-04-24T10:58:44;15.80;1.00
12438;DHT22;6283;51.330;12.374;2023-04-24T11:01:32;15.90;1.00
12438;DHT22;6283;51.330;12.374;2023-04-24T11:04:03;16.00;1.00
12438;DHT22;6283;51.330;12.374;2023-04-24T11:06:30;16.10;1.00
12438;DHT22;6283;51.330;12.374;2023-04-24T11:09:10;16.30;1.00
12438;DHT22;6283;51.330;12.374;2023-04-24T11:11:45;16.30;1.00
12438;DHT22;6283;51.330;12.374;2023-04-24T11:14:14;16.30;1.00
12438;DHT22;6283;51.330;12.374;2023-04-24T11:16:53;16.10;1.00
12438;DHT22;6283;51.330;12.374;2023-04-24T11:19:24;16.10;1.00
12438;DHT22;6283;51.330;12.374;2023-04-24T11:22:03;16.10;1.00
12438;DHT22;6283;51.330;12.374;2023-04-24T11:24:39;16.10;1.00
12438;DHT22;6283;51.330;12.374;2023-04-24T11:32:33;16.80;1.00
12438;DHT22;6283;51.330;12.374;2023-04-24T11:37:49;17.10;1.00
12438;DHT22;6283;51.330;12.374;2023-04-24T11:40:16;17.10;1.00
12438;DHT22;6283;51.330;12.374;2023-04-24T11:42:47;16.90;1.00
12438;DHT22;6283;51.330;12.374;2023-04-24T11:45:13;16.90;1.00
12438;DHT22;6283;51.330;12.374;2023-04-24T11:47:40;16.90;1.00
12438;DHT22;6283;51.330;12.374;2023-04-24T11:50:08;16.70;1.00
12438;DHT22;6283;51.330;12.374;2023-04-24T11:52:40;16.50;1.00
12438;DHT22;6283;51.330;12.374;2023-04-24T11:55:29;16.40;1.00
12438;DHT22;6283;51.330;12.374;2023-04-24T11:57:57;16.20;1.00
12438;DHT22;6283;51.330;12.374;2023-04-24T12:00:29;16.10;1.00
12438;DHT22;6283;51.330;12.374;2023-04-24T12:03:11;16.10;1.00
12438;DHT22;6283;51.330;12.374;2023-04-24T12:05:38;16.30;1.00
12438;DHT22;6283;51.330;12.374;2023-04-24T12:08:05;16.30;1.00
12438;DHT22;6283;51.330;12.374;2023-04-24T12:10:32;16.40;1.00
12438;DHT22;6283;51.330;12.374;2023-04-24T12:12:58;16.40;1.00
12438;DHT22;6283;51.330;12.374;2023-04-24T12:15:26;16.40;1.00
12438;DHT22;6283;51.330;12.374;2023-04-24T12:17:53;16.30;1.00
12438;DHT22;6283;51.330;12.374;2023-04-24T12:20:27;16.40;1.00
12438;DHT22;6283;51.330;12.374;2023-04-24T12:22:55;16.40;1.00
12438;DHT22;6283;51.330;12.374;2023-04-24T12:25:25;16.50;1.00
12438;DHT22;6283;51.330;12.374;2023-04-24T12:30:31;16.80;1.00
12438;DHT22;6283;51.330;12.374;2023-04-24T12:32:58;16.80;1.00
12438;DHT22;6283;51.330;12.374;2023-04-24T12:35:25;16.80;1.00
12438;DHT22;6283;51.330;12.374;2023-04-24T12:37:52;16.90;1.00
12438;DHT22;6283;51.330;12.374;2023-04-24T12:40:20;16.90;1.00
12438;DHT22;6283;51.330;12.374;2023-04-24T12:42:50;16.90;1.00
12438;DHT22;6283;51.330;12.374;2023-04-24T12:45:18;16.80;1.00
12438;DHT22;6283;51.330;12.374;2023-04-24T12:47:44;16.80;1.00
12438;DHT22;6283;51.330;12.374;2023-04-24T12:50:13;16.90;1.00
12438;DHT22;6283;51.330;12.374;2023-04-24T12:52:39;16.90;1.00
12438;DHT22;6283;51.330;12.374;2023-04-24T12:55:05;16.80;1.00
12438;DHT22;6283;51.330;12.374;2023-04-24T12:57:34;16.70;1.00
12438;DHT22;6283;51.330;12.374;2023-04-24T13:00:00;16.60;1.00
12438;DHT22;6283;51.330;12.374;2023-04-24T13:02:28;16.60;1.00
12438;DHT22;6283;51.330;12.374;2023-04-24T13:04:55;16.70;1.00
12438;DHT22;6283;51.330;12.374;2023-04-24T13:07:21;16.80;1.00
12438;DHT22;6283;51.330;12.374;2023-04-24T13:09:48;16.70;1.00
12438;DHT22;6283;51.330;12.374;2023-04-24T13:12:14;16.70;1.00
12438;DHT22;6283;51.330;12.374;2023-04-24T13:14:40;16.80;1.00
12438;DHT22;6283;51.330;12.374;2023-04-24T13:17:06;16.90;1.00
12438;DHT22;6283;51.330;12.374;2023-04-24T13:19:40;17.00;1.00
12438;DHT22;6283;51.330;12.374;2023-04-24T13:22:08;17.10;1.00
12438;DHT22;6283;51.330;12.374;2023-04-24T13:24:34;17.00;1.00
12438;DHT22;6283;51.330;12.374;2023-04-24T13:26:59;17.00;1.00
12438;DHT22;6283;51.330;12.374;2023-04-24T13:29:26;17.10;1.00
12438;DHT22;6283;51.330;12.374;2023-04-24T13:31:52;17.40;1.00
12438;DHT22;6283;51.330;12.374;2023-04-24T13:34:21;17.80;1.00
12438;DHT22;6283;51.330;12.374;2023-04-24T13:36:46;17.90;1.00
12438;DHT22;6283;51.330;12.374;2023-04-24T13:39:12;17.70;1.00
12438;DHT22;6283;51.330;12.374;2023-04-24T13:41:38;17.60;1.00
12438;DHT22;6283;51.330;12.374;2023-04-24T13:44:04;17.50;1.00
12438;DHT22;6283;51.330;12.374;2023-04-24T13:46:30;17.40;1.00
12438;DHT22;6283;51.330;12.374;2023-04-24T13:48:56;17.20;1.00
12438;DHT22;6283;51.330;12.374;2023-04-24T13:51:23;17.00;1.00
12438;DHT22;6283;51.330;12.374;2023-04-24T13:53:49;16.60;1.00
12438;DHT22;6283;51.330;12.374;2023-04-24T13:56:15;16.50;1.00
12438;DHT22;6283;51.330;12.374;2023-04-24T13:58:40;16.30;1.00
12438;DHT22;6283;51.330;12.374;2023-04-24T14:01:06;16.20;1.00
12438;DHT22;6283;51.330;12.374;2023-04-24T14:03:33;16.20;1.00
12438;DHT22;6283;51.330;12.374;2023-04-24T14:05:59;16.10;1.00
12438;DHT22;6283;51.330;12.374;2023-04-24T14:08:24;16.10;1.00
12438;DHT22;6283;51.330;12.374;2023-04-24T14:10:51;16.10;1.00
12438;DHT22;6283;51.330;12.374;2023-04-24T14:13:16;16.30;1.00
12438;DHT22;6283;51.330;12.374;2023-04-24T14:15:42;16.70;1.00
12438;DHT22;6283;51.330;12.374;2023-04-24T14:18:08;16.90;1.00
12438;DHT22;6283;51.330;12.374;2023-04-24T14:20:34;17.00;1.00
12438;DHT22;6283;51.330;12.374;2023-04-24T14:22:59;16.90;1.00
12438;DHT22;6283;51.330;12.374;2023-04-24T14:25:25;16.70;1.00
12438;DHT22;6283;51.330;12.374;2023-04-24T14:27:51;16.50;1.00
12438;DHT22;6283;51.330;12.374;2023-04-24T14:30:18;16.30;1.00
12438;DHT22;6283;51.330;12.374;2023-04-24T14:32:44;16.20;1.00
12438;DHT22;6283;51.330;12.374;2023-04-24T14:35:09;16.20;1.00
12438;DHT22;6283;51.330;12.374;2023-04-24T14:37:35;16.40;1.00
12438;DHT22;6283;51.330;12.374;2023-04-24T14:40:01;16.40;1.00
12438;DHT22;6283;51.330;12.374;2023-04-24T14:42:27;16.20;1.00
12438;DHT22;6283;51.330;12.374;2023-04-24T14:44:54;16.10;1.00
12438;DHT22;6283;51.330;12.374;2023-04-24T14:47:20;16.20;1.00
12438;DHT22;6283;51.330;12.374;2023-04-24T14:49:47;16.10;1.00
12438;DHT22;6283;51.330;12.374;2023-04-24T14:52:13;16.00;1.00
12438;DHT22;6283;51.330;12.374;2023-04-24T14:54:39;15.90;1.00
12438;DHT22;6283;51.330;12.374;2023-04-24T14:57:05;15.70;1.00
12438;DHT22;6283;51.330;12.374;2023-04-24T14:59:31;15.40;1.00
12438;DHT22;6283;51.330;12.374;2023-04-24T15:01:57;15.20;1.00
12438;DHT22;6283;51.330;12.374;2023-04-24T15:04:27;15.10;1.00
12438;DHT22;6283;51.330;12.374;2023-04-24T15:06:56;14.90;1.00
12438;DHT22;6283;51.330;12.374;2023-04-24T15:09:22;14.80;1.00
12438;DHT22;6283;51.330;12.374;2023-04-24T15:11:49;14.60;1.00
12438;DHT22;6283;51.330;12.374;2023-04-24T15:14:16;14.60;1.00
12438;DHT22;6283;51.330;12.374;2023-04-24T15:16:41;14.80;1.00
12438;DHT22;6283;51.330;12.374;2023-04-24T15:19:07;15.20;1.00
12438;DHT22;6283;51.330;12.374;2023-04-24T15:21:33;15.30;1.00
12438;DHT22;6283;51.330;12.374;2023-04-24T15:23:59;15.10;1.00
12438;DHT22;6283;51.330;12.374;2023-04-24T15:26:24;14.90;1.00
12438;DHT22;6283;51.330;12.374;2023-04-24T15:28:51;14.80;1.00
12438;DHT22;6283;51.330;12.374;2023-04-24T15:31:18;14.40;1.00
12438;DHT22;6283;51.330;12.374;2023-04-24T15:33:44;14.30;1.00
12438;DHT22;6283;51.330;12.374;2023-04-24T15:36:10;14.40;1.00
12438;DHT22;6283;51.330;12.374;2023-04-24T15:38:36;14.20;1.00
12438;DHT22;6283;51.330;12.374;2023-04-24T15:41:02;14.60;1.00
12438;DHT22;6283;51.330;12.374;2023-04-24T15:43:27;14.80;1.00
12438;DHT22;6283;51.330;12.374;2023-04-24T15:45:56;14.90;1.00
12438;DHT22;6283;51.330;12.374;2023-04-24T15:48:22;14.90;1.00
12438;DHT22;6283;51.330;12.374;2023-04-24T15:50:48;14.70;1.00
12438;DHT22;6283;51.330;12.374;2023-04-24T15:53:13;14.40;1.00